sensor_id;sensor_type;location;lat;lon;timestamp;pressure;altitude;pressure_sealevel;temperature;humidity
73941;BME280;62294;48.554;10.202;2023-02-08T00:00:43;97994.06;;;-10.33;100.00
73941;BME280;62294;48.554;10.202;2023-02-08T00:03:10;97994.97;;;-10.34;100.00
73941;BME280;62294;48.554;10.202;2023-02-08T00:05:38;97985.88;;;-10.45;100.00
73941;BME280;62294;48.554;10.202;2023-02-08T00:08:05;97985.88;;;-10.45;100.00
73941;BME280;62294;48.554;10.202;2023-02-08T00:10:33;97986.00;;;-10.50;100.00
73941;BME280;62294;48.554;10.202;2023-02-08T00:13:00;97977.00;;;-10.35;100.00
73941;BME280;62294;48.554;10.202;2023-02-08T00:15:27;97978.84;;;-10.40;100.00
73941;BME280;62294;48.554;10.202;2023-02-08T00:17:53;97972.19;;;-10.46;100.00
73941;BME280;62294;48.554;10.202;2023-02-08T00:20:19;97974.75;;;-10.46;100.00
73941;BME280;62294;48.554;10.202;2023-02-08T00:22:46;97972.13;;;-10.44;100.00
73941;BME280;62294;48.554;10.202;2023-02-08T00:25:13;97967.91;;;-10.47;100.00
73941;BME280;62294;48.554;10.202;2023-02-08T00:27:39;97969.69;;;-10.49;100.00
73941;BME280;62294;48.554;10.202;2023-02-08T00:30:06;97975.09;;;-10.58;100.00
73941;BME280;62294;48.554;10.202;2023-02-08T00:32:34;97965.53;;;-10.53;100.00
73941;BME280;62294;48.554;10.202;2023-02-08T00:35:00;97965.66;;;-10.57;100.00
73941;BME280;62294;48.554;10.202;2023-02-08T00:37:26;97969.09;;;-10.57;100.00
73941;BME280;62294;48.554;10.202;2023-02-08T00:39:53;97972.31;;;-10.50;100.00
73941;BME280;62294;48.554;10.202;2023-02-08T00:42:19;97973.25;;;-10.53;100.00
73941;BME280;62294;48.554;10.202;2023-02-08T00:44:46;97971.72;;;-10.60;100.00
73941;BME280;62294;48.554;10.202;2023-02-08T00:47:12;97971.53;;;-10.54;100.00
73941;BME280;62294;48.554;10.202;2023-02-08T00:49:39;97963.31;;;-10.65;100.00
73941;BME280;62294;48.554;10.202;2023-02-08T00:52:05;97963.44;;;-10.69;100.00
73941;BME280;62294;48.554;10.202;2023-02-08T00:54:32;97960.88;;;-10.69;100.00
73941;BME280;62294;48.554;10.202;2023-02-08T00:56:58;97957.81;;;-10.82;100.00
73941;BME280;62294;48.554;10.202;2023-02-08T00:59:25;97958.03;;;-10.90;100.00
73941;BME280;62294;48.554;10.202;2023-02-08T01:01:53;97964.31;;;-11.00;100.00
73941;BME280;62294;48.554;10.202;2023-02-08T01:04:19;97967.72;;;-10.99;100.00
73941;BME280;62294;48.554;10.202;2023-02-08T01:06:46;97965.94;;;-10.97;100.00
73941;BME280;62294;48.554;10.202;2023-02-08T01:09:13;97974.28;;;-10.89;100.00
73941;BME280;62294;48.554;10.202;2023-02-08T01:11:39;97968.22;;;-10.87;100.00
73941;BME280;62294;48.554;10.202;2023-02-08T01:14:05;97966.72;;;-10.94;100.00
73941;BME280;62294;48.554;10.202;2023-02-08T01:16:33;97964.88;;;-10.89;100.00
73941;BME280;62294;48.554;10.202;2023-02-08T01:19:01;97965.00;;;-10.95;100.00
73941;BME280;62294;48.554;10.202;2023-02-08T01:21:33;97971.84;;;-10.94;100.00
73941;BME280;62294;48.554;10.202;2023-02-08T01:24:00;97967.72;;;-10.99;100.00
73941;BME280;62294;48.554;10.202;2023-02-08T01:26:27;97970.41;;;-11.04;100.00
73941;BME280;62294;48.554;10.202;2023-02-08T01:28:54;97969.41;;;-10.98;100.00
73941;BME280;62294;48.554;10.202;2023-02-08T01:31:24;97966.91;;;-11.01;100.00
73941;BME280;62294;48.554;10.202;2023-02-08T01:33:51;97963.53;;;-11.03;100.00
73941;BME280;62294;48.554;10.202;2023-02-08T01:36:17;97965.94;;;-10.97;100.00
73941;BME280;62294;48.554;10.202;2023-02-08T01:38:45;97960.91;;;-11.00;100.00
73941;BME280;62294;48.554;10.202;2023-02-08T01:41:15;97956.75;;;-11.04;100.00
73941;BME280;62294;48.554;10.202;2023-02-08T01:46:31;97965.44;;;-11.10;100.00
73941;BME280;62294;48.554;10.202;2023-02-08T01:49:05;97957.81;;;-11.13;100.00
73941;BME280;62294;48.554;10.202;2023-02-08T01:51:37;97954.41;;;-11.13;100.00
73941;BME280;62294;48.554;10.202;2023-02-08T01:54:08;97961.22;;;-11.12;100.00
73941;BME280;62294;48.554;10.202;2023-02-08T01:56:38;97954.31;;;-11.10;100.00
73941;BME280;62294;48.554;10.202;2023-02-08T01:59:09;97946.69;;;-11.12;100.00
73941;BME280;62294;48.554;10.202;2023-02-08T02:01:37;97942.13;;;-11.02;100.00
73941;BME280;62294;48.554;10.202;2023-02-08T02:04:06;97946.22;;;-10.95;100.00
73941;BME280;62294;48.554;10.202;2023-02-08T02:06:42;97949.41;;;-10.87;100.00
73941;BME280;62294;48.554;10.202;2023-02-08T02:09:17;97941.50;;;-10.81;100.00
73941;BME280;62294;48.554;10.202;2023-02-08T02:11:44;97947.63;;;-10.85;100.00
73941;BME280;62294;48.554;10.202;2023-02-08T02:14:11;97950.16;;;-10.83;100.00
73941;BME280;62294;48.554;10.202;2023-02-08T02:16:38;97945.25;;;-10.91;100.00
73941;BME280;62294;48.554;10.202;2023-02-08T02:19:07;97955.59;;;-10.94;100.00
73941;BME280;62294;48.554;10.202;2023-02-08T02:24:32;97934.47;;;-11.04;100.00
73941;BME280;62294;48.554;10.202;2023-02-08T02:27:17;97939.72;;;-11.08;100.00
73941;BME280;62294;48.554;10.202;2023-02-08T02:41:31;97933.41;;;-10.97;100.00
73941;BME280;62294;48.554;10.202;2023-02-08T02:47:54;97935.50;;;-11.09;100.00
73941;BME280;62294;48.554;10.202;2023-02-08T02:50:40;97932.25;;;-11.16;100.00
73941;BME280;62294;48.554;10.202;2023-02-08T02:53:21;97930.59;;;-11.18;100.00
73941;BME280;62294;48.554;10.202;2023-02-08T02:55:55;97929.75;;;-11.19;100.00
73941;BME280;62294;48.554;10.202;2023-02-08T02:58:25;97937.47;;;-11.19;100.00
73941;BME280;62294;48.554;10.202;2023-02-08T03:00:54;97928.97;;;-11.22;100.00
73941;BME280;62294;48.554;10.202;2023-02-08T03:03:24;97931.41;;;-11.18;100.00
73941;BME280;62294;48.554;10.202;2023-02-08T03:05:53;97934.81;;;-11.16;100.00
73941;BME280;62294;48.554;10.202;2023-02-08T03:08:40;97933.16;;;-11.18;100.00
73941;BME280;62294;48.554;10.202;2023-02-08T03:11:25;97938.31;;;-11.18;100.00
73941;BME280;62294;48.554;10.202;2023-02-08T03:16:59;97928.06;;;-11.20;100.00
73941;BME280;62294;48.554;10.202;2023-02-08T03:27:48;97933.19;;;-11.20;100.00
73941;BME280;62294;48.554;10.202;2023-02-08T03:30:38;97930.69;;;-11.21;100.00
73941;BME280;62294;48.554;10.202;2023-02-08T03:33:18;97922.00;;;-11.17;100.00
73941;BME280;62294;48.554;10.202;2023-02-08T03:38:31;97922.28;;;-10.97;100.00
73941;BME280;62294;48.554;10.202;2023-02-08T03:41:01;97928.81;;;-10.86;100.00
73941;BME280;62294;48.554;10.202;2023-02-08T03:43:44;97923.78;;;-10.89;100.00
73941;BME280;62294;48.554;10.202;2023-02-08T03:46:20;97924.25;;;-10.76;100.00
73941;BME280;62294;48.554;10.202;2023-02-08T03:48:53;97919.50;;;-10.60;100.00
73941;BME280;62294;48.554;10.202;2023-02-08T03:51:22;97915.66;;;-10.46;100.00
73941;BME280;62294;48.554;10.202;2023-02-08T03:53:51;97916.38;;;-10.42;100.00
73941;BME280;62294;48.554;10.202;2023-02-08T03:56:34;97917.22;;;-10.42;100.00
73941;BME280;62294;48.554;10.202;2023-02-08T03:59:06;97919.22;;;-10.51;100.00
73941;BME280;62294;48.554;10.202;2023-02-08T04:01:45;97915.13;;;-10.57;100.00
73941;BME280;62294;48.554;10.202;2023-02-08T04:04:14;97913.28;;;-10.53;100.00
73941;BME280;62294;48.554;10.202;2023-02-08T04:06:43;97908.00;;;-10.49;100.00
73941;BME280;62294;48.554;10.202;2023-02-08T04:09:10;97917.56;;;-10.52;100.00
73941;BME280;62294;48.554;10.202;2023-02-08T04:11:36;97916.72;;;-10.53;100.00
73941;BME280;62294;48.554;10.202;2023-02-08T04:14:03;97912.44;;;-10.54;100.00
73941;BME280;62294;48.554;10.202;2023-02-08T04:16:29;97909.19;;;-10.59;100.00
73941;BME280;62294;48.554;10.202;2023-02-08T04:18:56;97917.03;;;-10.63;100.00
73941;BME280;62294;48.554;10.202;2023-02-08T04:21:23;97909.56;;;-10.71;100.00
73941;BME280;62294;48.554;10.202;2023-02-08T04:23:49;97908.50;;;-10.64;100.00
73941;BME280;62294;48.554;10.202;2023-02-08T04:26:15;97906.78;;;-10.65;100.00
73941;BME280;62294;48.554;10.202;2023-02-08T04:28:42;97901.50;;;-10.59;100.00
73941;BME280;62294;48.554;10.202;2023-02-08T04:31:08;97896.00;;;-10.76;100.00
73941;BME280;62294;48.554;10.202;2023-02-08T04:33:35;97908.25;;;-10.86;100.00
73941;BME280;62294;48.554;10.202;2023-02-08T04:36:02;97907.47;;;-10.88;100.00
73941;BME280;62294;48.554;10.202;2023-02-08T04:38:28;97903.03;;;-10.82;100.00
73941;BME280;62294;48.554;10.202;2023-02-08T04:40:55;97897.84;;;-10.81;100.00
73941;BME280;62294;48.554;10.202;2023-02-08T04:43:22;97894.22;;;-10.74;100.00
73941;BME280;62294;48.554;10.202;2023-02-08T04:45:49;97900.41;;;-10.79;100.00
73941;BME280;62294;48.554;10.202;2023-02-08T04:48:16;97896.75;;;-10.72;100.00
73941;BME280;62294;48.554;10.202;2023-02-08T04:50:43;97886.63;;;-10.77;100.00
73941;BME280;62294;48.554;10.202;2023-02-08T04:53:09;97889.88;;;-10.72;100.00
73941;BME280;62294;48.554;10.202;2023-02-08T04:55:36;97886.72;;;-10.80;100.00
73941;BME280;62294;48.554;10.202;2023-02-08T04:58:03;97889.34;;;-10.81;100.00
73941;BME280;62294;48.554;10.202;2023-02-08T05:00:29;97887.91;;;-10.92;100.00
73941;BME280;62294;48.554;10.202;2023-02-08T05:02:57;97894.75;;;-10.92;100.00
73941;BME280;62294;48.554;10.202;2023-02-08T05:05:24;97892.13;;;-10.89;100.00
73941;BME280;62294;48.554;10.202;2023-02-08T05:07:52;97892.13;;;-10.89;100.00
73941;BME280;62294;48.554;10.202;2023-02-08T05:10:19;97893.09;;;-10.93;100.00
73941;BME280;62294;48.554;10.202;2023-02-08T05:12:46;97887.97;;;-10.95;100.00
73941;BME280;62294;48.554;10.202;2023-02-08T05:15:12;97884.75;;;-11.01;100.00
73941;BME280;62294;48.554;10.202;2023-02-08T05:17:39;97882.09;;;-10.98;100.00
73941;BME280;62294;48.554;10.202;2023-02-08T05:20:06;97884.69;;;-10.98;100.00
73941;BME280;62294;48.554;10.202;2023-02-08T05:22:32;97885.53;;;-10.99;100.00
73941;BME280;62294;48.554;10.202;2023-02-08T05:25:00;97882.97;;;-10.98;100.00
73941;BME280;62294;48.554;10.202;2023-02-08T05:27:26;97882.09;;;-10.98;100.00
73941;BME280;62294;48.554;10.202;2023-02-08T05:29:53;97877.81;;;-10.98;100.00
73941;BME280;62294;48.554;10.202;2023-02-08T05:32:19;97887.25;;;-10.98;100.00
73941;BME280;62294;48.554;10.202;2023-02-08T05:34:46;97880.81;;;-10.83;100.00
73941;BME280;62294;48.554;10.202;2023-02-08T05:37:13;97884.09;;;-10.78;100.00
73941;BME280;62294;48.554;10.202;2023-02-08T05:39:39;97882.56;;;-10.84;100.00
73941;BME280;62294;48.554;10.202;2023-02-08T05:42:06;97891.19;;;-10.87;100.00
73941;BME280;62294;48.554;10.202;2023-02-08T05:44:32;97888.38;;;-10.79;100.00
73941;BME280;62294;48.554;10.202;2023-02-08T05:46:59;97888.38;;;-10.79;100.00
73941;BME280;62294;48.554;10.202;2023-02-08T05:49:26;97897.06;;;-10.83;100.00
73941;BME280;62294;48.554;10.202;2023-02-08T05:51:52;97896.34;;;-10.88;100.00
73941;BME280;62294;48.554;10.202;2023-02-08T05:54:18;97892.59;;;-10.76;100.00
73941;BME280;62294;48.554;10.202;2023-02-08T05:56:45;97897.72;;;-10.76;100.00
73941;BME280;62294;48.554;10.202;2023-02-08T05:59:12;97894.13;;;-10.71;100.00
73941;BME280;62294;48.554;10.202;2023-02-08T06:01:38;97904.47;;;-10.72;100.00
73941;BME280;62294;48.554;10.202;2023-02-08T06:04:05;97898.13;;;-10.61;100.00
73941;BME280;62294;48.554;10.202;2023-02-08T06:06:31;97895.56;;;-10.61;100.00
73941;BME280;62294;48.554;10.202;2023-02-08T06:08:58;97898.78;;;-10.54;100.00
73941;BME280;62294;48.554;10.202;2023-02-08T06:11:24;97899.78;;;-10.60;100.00
73941;BME280;62294;48.554;10.202;2023-02-08T06:13:51;97895.78;;;-10.41;100.00
73941;BME280;62294;48.554;10.202;2023-02-08T06:16:17;97900.16;;;-10.17;100.00
73941;BME280;62294;48.554;10.202;2023-02-08T06:18:45;97904.19;;;-10.09;100.00
73941;BME280;62294;48.554;10.202;2023-02-08T06:21:12;97896.28;;;-9.77;100.00
73941;BME280;62294;48.554;10.202;2023-02-08T06:23:38;97897.75;;;-9.70;100.00
73941;BME280;62294;48.554;10.202;2023-02-08T06:26:05;97893.91;;;-9.83;100.00
73941;BME280;62294;48.554;10.202;2023-02-08T06:28:31;97896.84;;;-9.69;100.00
73941;BME280;62294;48.554;10.202;2023-02-08T06:30:58;97904.88;;;-9.78;100.00
73941;BME280;62294;48.554;10.202;2023-02-08T06:33:25;97904.28;;;-9.86;100.00
73941;BME280;62294;48.554;10.202;2023-02-08T06:35:51;97900.22;;;-9.93;100.00
73941;BME280;62294;48.554;10.202;2023-02-08T06:38:19;97897.72;;;-9.95;100.00
73941;BME280;62294;48.554;10.202;2023-02-08T06:40:47;97904.59;;;-9.95;100.00
73941;BME280;62294;48.554;10.202;2023-02-08T06:43:15;97905.78;;;-9.79;100.00
73941;BME280;62294;48.554;10.202;2023-02-08T06:45:44;97901.03;;;-9.67;100.00
73941;BME280;62294;48.554;10.202;2023-02-08T06:48:12;97905.41;;;-9.69;100.00
73941;BME280;62294;48.554;10.202;2023-02-08T06:50:38;97901.16;;;-9.70;100.00
73941;BME280;62294;48.554;10.202;2023-02-08T06:53:05;97901.28;;;-9.48;100.00
73941;BME280;62294;48.554;10.202;2023-02-08T06:55:32;97897.97;;;-9.52;100.00
73941;BME280;62294;48.554;10.202;2023-02-08T06:57:58;97893.78;;;-9.54;100.00
73941;BME280;62294;48.554;10.202;2023-02-08T07:00:24;97906.16;;;-9.65;100.00
73941;BME280;62294;48.554;10.202;2023-02-08T07:02:51;97901.97;;;-9.69;100.00
73941;BME280;62294;48.554;10.202;2023-02-08T07:05:17;97903.97;;;-9.77;100.00
73941;BME280;62294;48.554;10.202;2023-02-08T07:07:44;97909.97;;;-9.77;100.00
73941;BME280;62294;48.554;10.202;2023-02-08T07:10:11;97905.56;;;-9.73;100.00
73941;BME280;62294;48.554;10.202;2023-02-08T07:12:37;97900.00;;;-9.61;100.00
73941;BME280;62294;48.554;10.202;2023-02-08T07:15:04;97900.84;;;-9.61;100.00
73941;BME280;62294;48.554;10.202;2023-02-08T07:17:31;97901.81;;;-9.63;100.00
73941;BME280;62294;48.554;10.202;2023-02-08T07:19:57;97901.69;;;-9.60;100.00
73941;BME280;62294;48.554;10.202;2023-02-08T07:22:24;97910.47;;;-9.41;100.00
73941;BME280;62294;48.554;10.202;2023-02-08T07:24:50;97913.16;;;-9.19;100.00
73941;BME280;62294;48.554;10.202;2023-02-08T07:27:16;97915.25;;;-9.06;100.00
73941;BME280;62294;48.554;10.202;2023-02-08T07:29:43;97912.34;;;-8.97;100.00
73941;BME280;62294;48.554;10.202;2023-02-08T07:32:10;97912.97;;;-8.92;100.00
73941;BME280;62294;48.554;10.202;2023-02-08T07:34:37;97917.75;;;-8.81;100.00
73941;BME280;62294;48.554;10.202;2023-02-08T07:37:03;97911.25;;;-8.68;100.00
73941;BME280;62294;48.554;10.202;2023-02-08T07:39:30;97916.94;;;-8.37;100.00
73941;BME280;62294;48.554;10.202;2023-02-08T07:41:57;97914.31;;;-7.52;100.00
73941;BME280;62294;48.554;10.202;2023-02-08T07:44:24;97913.97;;;-6.46;100.00
73941;BME280;62294;48.554;10.202;2023-02-08T07:46:51;97912.63;;;-5.14;100.00
73941;BME280;62294;48.554;10.202;2023-02-08T07:49:17;97915.00;;;-4.12;100.00
73941;BME280;62294;48.554;10.202;2023-02-08T07:51:43;97915.06;;;-3.98;100.00
73941;BME280;62294;48.554;10.202;2023-02-08T07:54:10;97911.38;;;-3.49;100.00
73941;BME280;62294;48.554;10.202;2023-02-08T07:56:36;97918.44;;;-2.63;100.00
73941;BME280;62294;48.554;10.202;2023-02-08T07:59:03;97920.44;;;-1.71;100.00
73941;BME280;62294;48.554;10.202;2023-02-08T08:01:29;97918.91;;;-2.29;100.00
73941;BME280;62294;48.554;10.202;2023-02-08T08:03:56;97908.66;;;-2.32;100.00
73941;BME280;62294;48.554;10.202;2023-02-08T08:06:23;97908.56;;;-1.89;100.00
73941;BME280;62294;48.554;10.202;2023-02-08T08:08:50;97905.66;;;-1.31;100.00
73941;BME280;62294;48.554;10.202;2023-02-08T08:11:18;97915.31;;;-0.94;100.00
73941;BME280;62294;48.554;10.202;2023-02-08T08:13:45;97916.47;;;-0.98;100.00
73941;BME280;62294;48.554;10.202;2023-02-08T08:16:11;97914.38;;;-1.72;100.00
73941;BME280;62294;48.554;10.202;2023-02-08T08:18:40;97901.00;;;-0.51;100.00
73941;BME280;62294;48.554;10.202;2023-02-08T08:21:07;97908.22;;;-0.54;100.00
73941;BME280;62294;48.554;10.202;2023-02-08T08:23:34;97893.38;;;-0.79;100.00
73941;BME280;62294;48.554;10.202;2023-02-08T08:26:20;97896.00;;;-0.54;100.00
73941;BME280;62294;48.554;10.202;2023-02-08T08:28:47;97898.69;;;0.30;100.00
73941;BME280;62294;48.554;10.202;2023-02-08T08:31:16;97891.56;;;-0.28;100.00
73941;BME280;62294;48.554;10.202;2023-02-08T08:33:43;97903.69;;;-0.27;100.00
73941;BME280;62294;48.554;10.202;2023-02-08T08:36:10;97901.53;;;-0.96;100.00
73941;BME280;62294;48.554;10.202;2023-02-08T08:38:37;97896.31;;;-0.84;100.00
73941;BME280;62294;48.554;10.202;2023-02-08T08:41:13;97893.88;;;-0.24;100.00
73941;BME280;62294;48.554;10.202;2023-02-08T08:43:40;97896.34;;;-0.10;100.00
73941;BME280;62294;48.554;10.202;2023-02-08T08:46:08;97884.88;;;0.40;100.00
73941;BME280;62294;48.554;10.202;2023-02-08T08:48:35;97897.03;;;0.76;100.00
73941;BME280;62294;48.554;10.202;2023-02-08T08:51:02;97893.34;;;-0.16;100.00
73941;BME280;62294;48.554;10.202;2023-02-08T08:53:28;97898.69;;;-0.43;100.00
73941;BME280;62294;48.554;10.202;2023-02-08T08:55:56;97896.41;;;-0.98;100.00
73941;BME280;62294;48.554;10.202;2023-02-08T08:58:22;97897.47;;;-0.01;100.00
73941;BME280;62294;48.554;10.202;2023-02-08T09:00:49;97894.03;;;0.46;100.00
73941;BME280;62294;48.554;10.202;2023-02-08T09:03:16;97885.50;;;0.55;100.00
73941;BME280;62294;48.554;10.202;2023-02-08T09:05:42;97891.84;;;0.98;100.00
73941;BME280;62294;48.554;10.202;2023-02-08T09:08:08;97892.94;;;0.96;100.00
73941;BME280;62294;48.554;10.202;2023-02-08T09:10:35;97891.34;;;0.82;100.00
73941;BME280;62294;48.554;10.202;2023-02-08T09:13:01;97896.38;;;0.38;100.00
73941;BME280;62294;48.554;10.202;2023-02-08T09:15:28;97889.47;;;0.37;100.00
73941;BME280;62294;48.554;10.202;2023-02-08T09:17:55;97892.00;;;1.08;100.00
73941;BME280;62294;48.554;10.202;2023-02-08T09:20:21;97883.19;;;0.98;100.00
73941;BME280;62294;48.554;10.202;2023-02-08T09:22:50;97892.13;;;1.06;100.00
73941;BME280;62294;48.554;10.202;2023-02-08T09:25:17;97893.91;;;1.06;100.00
73941;BME280;62294;48.554;10.202;2023-02-08T09:27:43;97890.84;;;1.78;100.00
73941;BME280;62294;48.554;10.202;2023-02-08T09:30:10;97889.50;;;1.06;100.00
73941;BME280;62294;48.554;10.202;2023-02-08T09:32:37;97887.22;;;0.67;100.00
73941;BME280;62294;48.554;10.202;2023-02-08T09:35:06;97881.91;;;-0.03;100.00
73941;BME280;62294;48.554;10.202;2023-02-08T09:37:33;97891.63;;;1.01;100.00
73941;BME280;62294;48.554;10.202;2023-02-08T09:40:00;97888.34;;;1.32;100.00
73941;BME280;62294;48.554;10.202;2023-02-08T09:42:34;97888.84;;;1.82;100.00
73941;BME280;62294;48.554;10.202;2023-02-08T09:45:28;97885.97;;;1.52;100.00
73941;BME280;62294;48.554;10.202;2023-02-08T09:48:23;97893.13;;;2.05;100.00
73941;BME280;62294;48.554;10.202;2023-02-08T09:50:58;97894.06;;;1.49;100.00
73941;BME280;62294;48.554;10.202;2023-02-08T09:53:36;97892.06;;;1.74;100.00
73941;BME280;62294;48.554;10.202;2023-02-08T09:56:09;97883.19;;;1.09;100.00
73941;BME280;62294;48.554;10.202;2023-02-08T09:58:49;97886.81;;;1.52;100.00
73941;BME280;62294;48.554;10.202;2023-02-08T10:01:27;97894.59;;;0.15;100.00
73941;BME280;62294;48.554;10.202;2023-02-08T10:04:25;97878.31;;;1.15;100.00
73941;BME280;62294;48.554;10.202;2023-02-08T10:06:53;97883.47;;;0.24;100.00
73941;BME280;62294;48.554;10.202;2023-02-08T10:09:22;97880.16;;;1.48;100.00
73941;BME280;62294;48.554;10.202;2023-02-08T10:12:05;97882.00;;;2.24;100.00
73941;BME280;62294;48.554;10.202;2023-02-08T10:14:53;97878.06;;;0.61;100.00
73941;BME280;62294;48.554;10.202;2023-02-08T10:34:09;97865.22;;;1.04;100.00
73941;BME280;62294;48.554;10.202;2023-02-08T10:36:39;97866.75;;;0.61;100.00
73941;BME280;62294;48.554;10.202;2023-02-08T10:39:18;97876.38;;;0.95;100.00
73941;BME280;62294;48.554;10.202;2023-02-08T10:41:50;97869.06;;;1.22;100.00
73941;BME280;62294;48.554;10.202;2023-02-08T10:44:26;97856.44;;;0.36;100.00
73941;BME280;62294;48.554;10.202;2023-02-08T10:50:08;97852.13;;;-1.24;100.00
73941;BME280;62294;48.554;10.202;2023-02-08T10:52:36;97845.84;;;-1.47;100.00
73941;BME280;62294;48.554;10.202;2023-02-08T10:55:12;97850.44;;;-1.77;100.00
73941;BME280;62294;48.554;10.202;2023-02-08T10:57:39;97842.72;;;-1.39;100.00
73941;BME280;62294;48.554;10.202;2023-02-08T11:00:10;97855.91;;;-1.68;100.00
73941;BME280;62294;48.554;10.202;2023-02-08T11:02:41;97849.34;;;-1.61;100.00
73941;BME280;62294;48.554;10.202;2023-02-08T11:05:14;97854.75;;;-1.64;100.00
73941;BME280;62294;48.554;10.202;2023-02-08T11:07:42;97853.66;;;-1.86;100.00
73941;BME280;62294;48.554;10.202;2023-02-08T11:13:05;97849.16;;;-1.58;100.00
73941;BME280;62294;48.554;10.202;2023-02-08T11:18:03;97850.84;;;-1.83;100.00
73941;BME280;62294;48.554;10.202;2023-02-08T11:20:33;97840.44;;;-2.10;100.00
73941;BME280;62294;48.554;10.202;2023-02-08T11:23:04;97843.59;;;-1.66;100.00
73941;BME280;62294;48.554;10.202;2023-02-08T11:25:37;97841.53;;;-1.61;100.00
73941;BME280;62294;48.554;10.202;2023-02-08T11:28:21;97842.19;;;-1.45;100.00
73941;BME280;62294;48.554;10.202;2023-02-08T11:31:02;97828.63;;;-1.89;100.00
73941;BME280;62294;48.554;10.202;2023-02-08T11:33:33;97822.91;;;-1.42;100.00
73941;BME280;62294;48.554;10.202;2023-02-08T11:36:04;97821.59;;;-1.74;100.00
73941;BME280;62294;48.554;10.202;2023-02-08T11:38:33;97818.69;;;-1.57;100.00
73941;BME280;62294;48.554;10.202;2023-02-08T11:41:03;97818.94;;;-1.87;100.00
73941;BME280;62294;48.554;10.202;2023-02-08T11:43:32;97820.81;;;-1.50;100.00
73941;BME280;62294;48.554;10.202;2023-02-08T11:46:02;97801.44;;;-1.33;100.00
73941;BME280;62294;48.554;10.202;2023-02-08T11:48:43;97806.88;;;-1.23;100.00
73941;BME280;62294;48.554;10.202;2023-02-08T11:51:13;97813.91;;;-1.51;100.00
73941;BME280;62294;48.554;10.202;2023-02-08T11:53:49;97794.53;;;-1.47;100.00
73941;BME280;62294;48.554;10.202;2023-02-08T11:56:16;97796.81;;;-1.29;100.00
73941;BME280;62294;48.554;10.202;2023-02-08T11:58:59;97794.31;;;-1.18;100.00
73941;BME280;62294;48.554;10.202;2023-02-08T12:01:38;97780.88;;;-1.12;100.00
73941;BME280;62294;48.554;10.202;2023-02-08T12:04:09;97787.44;;;-1.32;100.00
73941;BME280;62294;48.554;10.202;2023-02-08T12:06:59;97790.97;;;-1.46;100.00
73941;BME280;62294;48.554;10.202;2023-02-08T12:12:31;97785.66;;;-1.31;100.00
73941;BME280;62294;48.554;10.202;2023-02-08T12:15:17;97785.38;;;-1.14;100.00
73941;BME280;62294;48.554;10.202;2023-02-08T12:18:27;97774.72;;;-0.99;100.00
73941;BME280;62294;48.554;10.202;2023-02-08T12:21:20;97778.88;;;-1.34;100.00
73941;BME280;62294;48.554;10.202;2023-02-08T12:23:54;97768.88;;;-1.40;100.00
73941;BME280;62294;48.554;10.202;2023-02-08T12:32:15;97753.53;;;-1.19;100.00
73941;BME280;62294;48.554;10.202;2023-02-08T12:35:16;97748.81;;;-0.89;100.00
73941;BME280;62294;48.554;10.202;2023-02-08T12:44:44;97742.16;;;-1.31;100.00
73941;BME280;62294;48.554;10.202;2023-02-08T12:50:21;97731.75;;;-0.82;100.00
73941;BME280;62294;48.554;10.202;2023-02-08T12:52:59;97733.34;;;-0.92;100.00
73941;BME280;62294;48.554;10.202;2023-02-08T12:55:30;97724.56;;;-0.91;100.00
73941;BME280;62294;48.554;10.202;2023-02-08T12:58:13;97717.75;;;-1.42;100.00
73941;BME280;62294;48.554;10.202;2023-02-08T13:00:46;97721.91;;;-1.15;100.00
73941;BME280;62294;48.554;10.202;2023-02-08T13:05:49;97708.84;;;-1.02;100.00
73941;BME280;62294;48.554;10.202;2023-02-08T13:08:39;97704.56;;;-1.16;100.00
73941;BME280;62294;48.554;10.202;2023-02-08T13:11:15;97700.94;;;-0.77;100.00
73941;BME280;62294;48.554;10.202;2023-02-08T13:13:55;97704.75;;;-0.94;100.00
73941;BME280;62294;48.554;10.202;2023-02-08T13:16:26;97689.25;;;-0.84;100.00
73941;BME280;62294;48.554;10.202;2023-02-08T13:19:45;97685.19;;;-0.76;100.00
73941;BME280;62294;48.554;10.202;2023-02-08T13:21:52;97692.38;;;-0.79;100.00
73941;BME280;62294;48.554;10.202;2023-02-08T13:24:37;97701.53;;;-0.97;100.00
73941;BME280;62294;48.554;10.202;2023-02-08T13:27:05;97695.13;;;-0.81;100.00
73941;BME280;62294;48.554;10.202;2023-02-08T13:29:36;97687.41;;;-0.95;100.00
73941;BME280;62294;48.554;10.202;2023-02-08T13:32:13;97679.91;;;-0.99;100.00
73941;BME280;62294;48.554;10.202;2023-02-08T13:34:52;97686.75;;;-0.73;100.00
73941;BME280;62294;48.554;10.202;2023-02-08T13:37:23;97675.84;;;-0.67;100.00
73941;BME280;62294;48.554;10.202;2023-02-08T13:40:11;97667.38;;;-0.94;100.00
73941;BME280;62294;48.554;10.202;2023-02-08T13:42:53;97671.28;;;-0.76;100.00
73941;BME280;62294;48.554;10.202;2023-02-08T13:45:32;97667.50;;;-0.72;100.00
73941;BME280;62294;48.554;10.202;2023-02-08T13:48:05;97660.28;;;-0.92;100.00
73941;BME280;62294;48.554;10.202;2023-02-08T13:53:12;97658.84;;;-0.96;100.00
73941;BME280;62294;48.554;10.202;2023-02-08T13:55:50;97673.84;;;-0.87;100.00
73941;BME280;62294;48.554;10.202;2023-02-08T14:06:05;97660.41;;;-1.06;100.00
73941;BME280;62294;48.554;10.202;2023-02-08T14:08:43;97661.50;;;-0.85;100.00
73941;BME280;62294;48.554;10.202;2023-02-08T14:14:00;97658.50;;;-0.68;100.00
73941;BME280;62294;48.554;10.202;2023-02-08T14:16:35;97656.91;;;-1.18;100.00
73941;BME280;62294;48.554;10.202;2023-02-08T14:21:46;97660.94;;;-1.01;100.00
73941;BME280;62294;48.554;10.202;2023-02-08T14:24:22;97662.50;;;-1.11;100.00
73941;BME280;62294;48.554;10.202;2023-02-08T14:27:08;97663.53;;;-1.01;100.00
73941;BME280;62294;48.554;10.202;2023-02-08T14:29:35;97666.44;;;-0.93;100.00